createdAt,value
2019-01-05T00:00:11.968Z,12.43
2019-01-05T00:03:08.404Z,13.20
2019-01-05T00:05:56.430Z,11.63
2019-01-05T00:08:44.692Z,12.63
2019-01-05T00:11:36.036Z,12.70
2019-01-05T00:14:27.378Z,12.67
2019-01-05T00:17:17.013Z,13.03
2019-01-05T00:20:10.670Z,12.93
2019-01-05T00:23:00.197Z,12.03
2019-01-05T00:25:50.627Z,12.93
2019-01-05T00:28:46.291Z,13.27
2019-01-05T00:31:35.627Z,12.93
2019-01-05T00:34:26.362Z,13.43
2019-01-05T00:37:28.625Z,12.70
2019-01-05T00:40:24.840Z,13.00
2019-01-05T00:43:23.470Z,13.37
2019-01-05T00:46:11.472Z,12.87
2019-01-05T00:49:03.486Z,12.40
2019-01-05T00:52:08.346Z,13.27
2019-01-05T00:55:16.588Z,12.90
2019-01-05T00:58:09.148Z,13.40
2019-01-05T01:01:17.006Z,14.07
2019-01-05T01:04:04.094Z,13.37
2019-01-05T01:07:06.178Z,13.03
2019-01-05T01:10:07.916Z,12.03
2019-01-05T01:12:55.987Z,12.83
2019-01-05T01:15:49.284Z,13.93
2019-01-05T01:18:53.645Z,12.70
2019-01-05T01:21:39.855Z,12.03
2019-01-05T01:24:38.369Z,11.87
2019-01-05T01:27:26.699Z,12.70
2019-01-05T01:30:15.708Z,13.03
2019-01-05T01:33:07.421Z,12.57
2019-01-05T01:35:55.671Z,12.57
2019-01-05T01:38:46.248Z,12.77
2019-01-05T01:41:46.321Z,12.40
2019-01-05T01:44:36.637Z,11.63
2019-01-05T01:47:38.790Z,12.53
2019-01-05T01:50:36.481Z,13.17
2019-01-05T01:53:28.195Z,13.23
2019-01-05T01:56:21.379Z,12.37
2019-01-05T01:59:11.435Z,11.70
2019-01-05T02:02:01.123Z,12.67
2019-01-05T02:04:49.964Z,11.70
2019-01-05T02:07:42.723Z,11.23
2019-01-05T02:10:48.644Z,12.47
2019-01-05T02:13:40.552Z,11.33
2019-01-05T02:16:43.586Z,11.63
2019-01-05T02:19:49.808Z,11.97
2019-01-05T02:23:22.921Z,11.03
2019-01-05T02:26:42.637Z,11.93
2019-01-05T02:30:02.648Z,11.07
2019-01-05T02:34:06.226Z,11.33
2019-01-05T02:37:31.282Z,11.73
2019-01-05T02:41:27.212Z,10.87
2019-01-05T02:44:49.520Z,11.43
2019-01-05T02:48:13.885Z,10.77
2019-01-05T02:51:48.774Z,10.43
2019-01-05T02:55:19.221Z,10.33
2019-01-05T02:58:41.026Z,10.77
2019-01-05T03:02:01.895Z,10.37
2019-01-05T03:05:10.790Z,11.43
2019-01-05T03:08:38.535Z,10.63
2019-01-05T03:12:10.520Z,11.07
2019-01-05T03:15:32.162Z,10.50
2019-01-05T03:18:58.722Z,10.60
2019-01-05T03:22:46.361Z,10.73
2019-01-05T03:26:31.763Z,10.10
2019-01-05T03:30:13.470Z,9.80
2019-01-05T03:33:54.823Z,10.83
2019-01-05T03:37:34.144Z,11.12
2019-01-05T03:41:06.112Z,9.77
2019-01-05T03:44:30.350Z,10.33
2019-01-05T03:47:55.358Z,10.67
2019-01-05T03:51:31.983Z,11.23
2019-01-05T03:55:08.018Z,10.30
2019-01-05T03:58:27.041Z,11.60
2019-01-05T04:02:27.581Z,11.87
2019-01-05T04:05:40.099Z,10.87
2019-01-05T04:09:09.797Z,12.20
2019-01-05T04:12:46.509Z,11.20
2019-01-05T04:16:34.824Z,11.37
2019-01-05T04:20:06.740Z,11.03
2019-01-05T04:23:13.384Z,10.37
2019-01-05T04:26:49.375Z,10.87
2019-01-05T04:30:18.562Z,11.67
2019-01-05T04:33:53.825Z,10.47
2019-01-05T04:37:18.815Z,10.53
2019-01-05T04:40:36.707Z,10.60
2019-01-05T04:43:52.295Z,10.20
2019-01-05T04:47:30.451Z,10.17
2019-01-05T04:50:54.105Z,9.73
2019-01-05T04:54:37.703Z,10.50
2019-01-05T04:58:22.661Z,10.60
2019-01-05T05:01:54.067Z,10.47
2019-01-05T05:05:15.439Z,10.13
2019-01-05T05:08:56.593Z,10.50
2019-01-05T05:12:17.733Z,10.67
2019-01-05T05:15:55.663Z,9.73
2019-01-05T05:19:26.748Z,11.00
2019-01-05T05:23:08.965Z,10.60
2019-01-05T05:26:56.193Z,10.93
2019-01-05T05:30:23.202Z,9.50
2019-01-05T05:33:51.282Z,9.83
2019-01-05T05:37:31.661Z,9.43
2019-01-05T05:40:55.297Z,10.93
2019-01-05T05:44:35.536Z,10.27
2019-01-05T05:48:00.669Z,9.53
2019-01-05T05:54:42.735Z,10.80
2019-01-05T05:58:16.515Z,10.87
2019-01-05T06:01:54.344Z,10.77
2019-01-05T06:05:25.337Z,9.60
2019-01-05T06:08:52.007Z,10.20
2019-01-05T06:12:17.867Z,10.00
2019-01-05T06:15:36.741Z,9.70
2019-01-05T06:19:02.168Z,9.10
2019-01-05T06:22:46.207Z,8.90
2019-01-05T06:26:33.669Z,9.43
2019-01-05T06:30:21.411Z,9.67
2019-01-05T06:34:20.865Z,8.63
2019-01-05T06:37:56.053Z,9.03
2019-01-05T06:41:49.993Z,8.97
2019-01-05T06:45:31.490Z,8.07
2019-01-05T06:48:51.176Z,8.30
2019-01-05T06:52:35.171Z,8.93
2019-01-05T06:56:09.599Z,8.60
2019-01-05T06:59:46.942Z,8.33
2019-01-05T07:03:23.141Z,7.83
2019-01-05T07:07:01.104Z,7.80
2019-01-05T07:10:26.846Z,8.57
2019-01-05T07:14:17.206Z,8.57
2019-01-05T07:17:41.182Z,8.47
2019-01-05T07:21:12.148Z,8.60
2019-01-05T07:24:47.484Z,9.03
2019-01-05T07:28:14.317Z,8.57
2019-01-05T07:31:44.450Z,8.93
2019-01-05T07:35:23.129Z,8.90
2019-01-05T07:38:46.532Z,10.00
2019-01-05T07:42:11.438Z,8.57
2019-01-05T07:45:41.982Z,8.00
2019-01-05T07:49:00.007Z,8.87
2019-01-05T07:52:23.315Z,9.17
2019-01-05T07:56:00.366Z,8.83
2019-01-05T07:59:34.112Z,9.23
2019-01-05T08:03:05.657Z,8.80
2019-01-05T08:06:24.822Z,9.20
2019-01-05T08:09:53.399Z,8.10
2019-01-05T08:13:20.236Z,8.80
2019-01-05T08:16:49.025Z,8.97
2019-01-05T08:20:22.255Z,8.33
2019-01-05T08:23:53.845Z,7.70
2019-01-05T08:27:43.106Z,8.70
2019-01-05T08:31:05.710Z,10.07
2019-01-05T08:34:52.357Z,9.23
2019-01-05T08:38:15.658Z,9.37
2019-01-05T08:41:48.477Z,10.10
2019-01-05T08:45:19.321Z,9.33
2019-01-05T08:48:36.191Z,9.37
2019-01-05T08:52:16.276Z,10.40
2019-01-05T08:56:09.475Z,10.83
2019-01-05T08:59:38.730Z,8.83
2019-01-05T09:03:20.883Z,10.87
2019-01-05T09:07:05.053Z,10.10
2019-01-05T09:10:32.919Z,8.87
2019-01-05T09:13:45.686Z,9.67
2019-01-05T09:17:22.861Z,10.50
2019-01-05T09:20:52.702Z,9.63
2019-01-05T09:24:32.882Z,10.13
2019-01-05T09:28:24.244Z,9.53
2019-01-05T09:31:40.354Z,9.43
2019-01-05T09:35:11.422Z,9.03
2019-01-05T09:39:14.561Z,9.17
2019-01-05T09:42:56.045Z,9.93
2019-01-05T09:46:43.201Z,9.40
2019-01-05T09:49:59.955Z,8.88
2019-01-05T09:53:23.491Z,9.37
2019-01-05T09:56:47.643Z,9.60
2019-01-05T10:00:24.404Z,10.70
2019-01-05T10:04:12.380Z,9.27
2019-01-05T10:08:01.926Z,8.73
2019-01-05T10:11:45.658Z,9.60
2019-01-05T10:15:15.925Z,10.17
2019-01-05T10:18:53.979Z,10.20
2019-01-05T10:22:41.911Z,9.40
2019-01-05T10:26:23.187Z,9.87
2019-01-05T10:30:05.726Z,10.30
2019-01-05T10:33:41.935Z,11.23
2019-01-05T10:36:58.124Z,10.77
2019-01-05T10:40:36.621Z,11.23
2019-01-05T10:44:01.971Z,12.00
2019-01-05T10:47:05.783Z,11.67
2019-01-05T10:50:45.920Z,12.43
2019-01-05T10:54:07.222Z,13.07
2019-01-05T10:57:32.348Z,11.37
2019-01-05T11:01:20.913Z,12.28
2019-01-05T11:04:40.636Z,13.13
2019-01-05T11:07:45.585Z,11.47
2019-01-05T11:11:18.380Z,12.03
2019-01-05T11:14:48.271Z,11.60
2019-01-05T11:18:00.915Z,11.93
2019-01-05T11:21:13.125Z,11.40
2019-01-05T11:24:44.498Z,12.37
2019-01-05T11:28:16.658Z,12.33
2019-01-05T11:31:52.957Z,13.30
2019-01-05T11:35:34.967Z,13.67
2019-01-05T11:39:10.438Z,14.23
2019-01-05T11:42:45.592Z,13.23
2019-01-05T11:45:56.563Z,15.17
2019-01-05T11:49:29.572Z,15.87
2019-01-05T11:52:47.065Z,15.27
2019-01-05T11:56:10.474Z,15.77
2019-01-05T11:59:47.571Z,16.13
2019-01-05T12:03:18.151Z,14.60
2019-01-05T12:06:40.270Z,14.23
2019-01-05T12:10:12.336Z,16.00
2019-01-05T12:14:03.626Z,14.13
2019-01-05T12:17:31.306Z,13.50
2019-01-05T12:21:00.235Z,13.67
2019-01-05T12:24:28.736Z,13.93
2019-01-05T12:28:23.131Z,13.17
2019-01-05T12:32:10.844Z,12.70
2019-01-05T12:35:47.704Z,11.90
2019-01-05T12:39:44.564Z,13.20
2019-01-05T12:43:29.881Z,13.50
2019-01-05T12:46:47.478Z,12.10
2019-01-05T12:50:22.689Z,11.30
2019-01-05T12:53:39.601Z,11.47
2019-01-05T12:57:09.589Z,11.07
2019-01-05T13:00:50.901Z,11.60
2019-01-05T13:04:28.925Z,10.07
2019-01-05T13:08:02.382Z,11.07
2019-01-05T13:11:35.900Z,11.17
2019-01-05T13:14:55.439Z,10.57
2019-01-05T13:18:39.137Z,10.60
2019-01-05T13:21:55.781Z,11.03
2019-01-05T13:25:20.450Z,9.93
2019-01-05T13:29:17.306Z,10.03
2019-01-05T13:32:48.744Z,9.63
2019-01-05T13:36:32.299Z,9.60
2019-01-05T13:39:47.677Z,9.97
2019-01-05T13:43:24.183Z,9.50
2019-01-05T13:47:17.362Z,9.40
2019-01-05T13:50:42.113Z,9.13
2019-01-05T13:53:50.723Z,10.07
2019-01-05T13:56:53.845Z,9.23
2019-01-05T13:59:52.413Z,9.63
2019-01-05T14:02:51.486Z,10.20
2019-01-05T14:05:42.979Z,10.13
2019-01-05T14:08:38.376Z,9.90
2019-01-05T14:11:26.255Z,10.37
2019-01-05T14:14:26.047Z,10.03
2019-01-05T14:17:27.617Z,10.10
2019-01-05T14:20:31.892Z,11.03
2019-01-05T14:23:26.937Z,10.40
2019-01-05T14:26:13.351Z,10.47
2019-01-05T14:29:01.608Z,10.50
2019-01-05T14:31:49.656Z,11.03
2019-01-05T14:34:41.957Z,10.67
2019-01-05T14:37:23.267Z,9.97
2019-01-05T14:40:15.645Z,10.30
2019-01-05T14:43:03.766Z,10.77
2019-01-05T14:45:53.542Z,10.60
2019-01-05T14:48:42.474Z,9.77
2019-01-05T14:51:38.461Z,10.00
2019-01-05T14:54:26.253Z,10.40
2019-01-05T14:57:15.798Z,9.53
2019-01-05T15:00:04.231Z,10.23
2019-01-05T15:02:57.563Z,10.60
2019-01-05T15:05:56.218Z,10.83
2019-01-05T15:08:44.372Z,9.23
2019-01-05T15:11:46.071Z,10.57
2019-01-05T15:14:35.623Z,10.60
2019-01-05T15:17:23.641Z,11.53
2019-01-05T15:20:22.348Z,13.53
2019-01-05T15:23:11.245Z,11.10
2019-01-05T15:26:00.551Z,9.67
2019-01-05T15:28:49.830Z,12.07
2019-01-05T15:31:41.904Z,10.17
2019-01-05T15:34:29.804Z,8.13
2019-01-05T15:37:17.962Z,8.47
2019-01-05T15:40:06.316Z,9.57
2019-01-05T15:42:59.815Z,8.87
2019-01-05T15:46:05.357Z,9.37
2019-01-05T15:49:04.164Z,8.20
2019-01-05T15:52:05.611Z,7.87
2019-01-05T15:54:54.790Z,7.83
2019-01-05T15:57:42.893Z,7.53
2019-01-05T16:00:44.677Z,8.17
2019-01-05T16:03:40.539Z,6.53
2019-01-05T16:06:45.199Z,6.20
2019-01-05T16:09:40.714Z,6.20
2019-01-05T16:12:36.013Z,5.87
2019-01-05T16:15:37.825Z,5.60
2019-01-05T16:18:25.912Z,5.90
2019-01-05T16:21:13.938Z,5.47
2019-01-05T16:24:03.471Z,6.00
2019-01-05T16:26:47.309Z,5.50
2019-01-05T16:29:42.836Z,6.40
2019-01-05T16:32:31.693Z,5.87
2019-01-05T16:35:24.854Z,5.60
2019-01-05T16:38:08.424Z,5.93
2019-01-05T16:41:00.861Z,5.57
2019-01-05T16:43:51.173Z,4.90
2019-01-05T16:46:39.182Z,5.83
2019-01-05T16:49:28.654Z,5.07
2019-01-05T16:52:18.255Z,5.13
2019-01-05T16:55:06.709Z,5.23
2019-01-05T16:57:54.811Z,5.00
2019-01-05T17:00:53.322Z,5.20
2019-01-05T17:03:55.250Z,4.57
2019-01-05T17:06:36.086Z,5.17
2019-01-05T17:09:39.607Z,4.77
2019-01-05T17:12:32.027Z,5.13
2019-01-05T17:15:30.612Z,4.47
2019-01-05T17:18:25.921Z,4.90
2019-01-05T17:21:14.224Z,5.60
2019-01-05T17:24:06.232Z,5.17
2019-01-05T17:27:04.212Z,4.37
2019-01-05T17:29:56.162Z,5.03
2019-01-05T17:32:44.523Z,6.47
2019-01-05T17:35:32.457Z,4.60
2019-01-05T17:38:21.492Z,5.17
2019-01-05T17:41:10.013Z,3.73
2019-01-05T17:44:14.744Z,4.23
2019-01-05T17:47:04.349Z,4.07
2019-01-05T17:49:53.405Z,4.30
2019-01-05T17:52:54.999Z,3.73
2019-01-05T17:55:43.135Z,4.47
2019-01-05T17:58:32.347Z,4.90
2019-01-05T18:01:33.251Z,5.27
2019-01-05T18:04:41.042Z,4.73
2019-01-05T18:07:45.727Z,4.07
2019-01-05T18:10:38.151Z,3.80
2019-01-05T18:13:31.840Z,3.67
2019-01-05T18:16:33.081Z,4.13
2019-01-05T18:19:21.164Z,3.80
2019-01-05T18:22:09.380Z,4.57
2019-01-05T18:25:16.958Z,4.63
2019-01-05T18:28:09.591Z,4.13
2019-01-05T18:31:01.697Z,4.43
2019-01-05T18:33:50.901Z,4.73
2019-01-05T18:36:36.311Z,3.73
2019-01-05T18:39:30.082Z,3.70
2019-01-05T18:42:17.913Z,3.80
2019-01-05T18:45:12.916Z,3.63
2019-01-05T18:48:01.069Z,3.97
2019-01-05T18:50:53.152Z,3.90
2019-01-05T18:53:55.376Z,4.77
2019-01-05T18:56:56.584Z,4.23
2019-01-05T18:59:48.948Z,3.80
2019-01-05T19:02:32.622Z,3.50
2019-01-05T19:05:40.322Z,4.97
2019-01-05T19:08:28.550Z,3.80
2019-01-05T19:11:27.871Z,4.40
2019-01-05T19:14:22.998Z,4.37
2019-01-05T19:17:13.536Z,3.83
2019-01-05T19:20:03.539Z,4.70
2019-01-05T19:23:02.137Z,4.17
2019-01-05T19:25:52.758Z,4.20
2019-01-05T19:28:48.331Z,4.37
2019-01-05T19:31:52.903Z,4.85
2019-01-05T19:34:54.350Z,4.20
2019-01-05T19:37:42.666Z,4.00
2019-01-05T19:40:48.024Z,4.03
2019-01-05T19:43:52.449Z,4.70
2019-01-05T19:46:41.051Z,5.40
2019-01-05T19:49:30.019Z,4.70
2019-01-05T19:52:18.465Z,4.30
2019-01-05T19:55:08.556Z,4.33
2019-01-05T19:57:58.032Z,4.23
2019-01-05T20:00:56.211Z,4.10
2019-01-05T20:04:02.310Z,4.17
2019-01-05T20:06:50.640Z,4.23
2019-01-05T20:09:38.524Z,4.00
2019-01-05T20:12:26.867Z,4.07
2019-01-05T20:15:14.668Z,4.50
2019-01-05T20:18:07.342Z,4.00
2019-01-05T20:20:56.479Z,4.37
2019-01-05T20:23:42.982Z,3.93
2019-01-05T20:26:35.809Z,4.17
2019-01-05T20:29:37.061Z,4.43
2019-01-05T20:32:35.482Z,4.03
2019-01-05T20:35:23.651Z,4.70
2019-01-05T20:38:20.123Z,4.27
2019-01-05T20:41:18.680Z,3.80
2019-01-05T20:44:11.179Z,3.73
2019-01-05T20:46:59.501Z,4.77
2019-01-05T20:49:48.661Z,4.93
2019-01-05T20:52:45.686Z,4.03
2019-01-05T20:55:38.086Z,4.10
2019-01-05T20:58:26.254Z,4.07
2019-01-05T21:01:14.365Z,4.30
2019-01-05T21:04:00.128Z,3.90
2019-01-05T21:06:52.395Z,4.20
2019-01-05T21:09:37.800Z,4.37
2019-01-05T21:12:30.029Z,3.97
2019-01-05T21:15:22.228Z,4.07
2019-01-05T21:18:10.020Z,5.20
2019-01-05T21:21:02.475Z,5.40
2019-01-05T21:23:56.715Z,4.50
2019-01-05T21:26:44.941Z,4.80
2019-01-05T21:29:52.514Z,4.77
2019-01-05T21:32:37.509Z,4.30
2019-01-05T21:35:38.821Z,4.70
2019-01-05T21:38:35.337Z,4.73
2019-01-05T21:41:30.743Z,6.00
2019-01-05T21:44:32.392Z,7.57
2019-01-05T21:47:30.671Z,7.17
2019-01-05T21:50:19.737Z,5.13
2019-01-05T21:53:05.282Z,5.10
2019-01-05T21:56:03.449Z,4.70
2019-01-05T21:58:52.068Z,4.50
2019-01-05T22:01:41.278Z,7.03
2019-01-05T22:04:36.427Z,4.53
2019-01-05T22:07:18.760Z,5.37
2019-01-05T22:10:01.351Z,4.47
2019-01-05T22:12:49.249Z,5.40
2019-01-05T22:15:31.582Z,4.30
2019-01-05T22:18:19.485Z,5.30
2019-01-05T22:21:03.565Z,4.53
2019-01-05T22:24:03.188Z,4.17
2019-01-05T22:26:58.538Z,4.40
2019-01-05T22:29:56.480Z,4.77
2019-01-05T22:32:41.563Z,3.80
2019-01-05T22:35:33.754Z,4.50
2019-01-05T22:38:25.969Z,4.37
2019-01-05T22:41:15.184Z,4.17
2019-01-05T22:44:07.350Z,4.97
2019-01-05T22:46:55.451Z,4.47
2019-01-05T22:49:43.675Z,4.90
2019-01-05T22:52:31.848Z,4.83
2019-01-05T22:55:20.093Z,4.80
2019-01-05T22:58:09.053Z,5.17
2019-01-05T23:00:57.284Z,5.20
2019-01-05T23:03:45.512Z,5.00
2019-01-05T23:06:31.529Z,4.67
2019-01-05T23:09:31.479Z,5.07
2019-01-05T23:12:26.755Z,4.83
2019-01-05T23:15:07.965Z,5.70
2019-01-05T23:17:56.235Z,5.23
2019-01-05T23:20:48.604Z,5.33
2019-01-05T23:23:32.837Z,5.00
2019-01-05T23:26:16.565Z,5.47
2019-01-05T23:29:14.558Z,5.43
2019-01-05T23:32:15.770Z,5.63
2019-01-05T23:35:04.777Z,5.27
2019-01-05T23:38:06.127Z,5.10
2019-01-05T23:40:54.133Z,5.03
2019-01-05T23:43:45.110Z,5.37
2019-01-05T23:46:29.985Z,5.83
2019-01-05T23:49:13.309Z,5.30
2019-01-05T23:52:05.406Z,5.20
2019-01-05T23:54:54.917Z,5.53
2019-01-05T23:57:43.738Z,4.93
